sensor_id;sensor_type;location;lat;lon;timestamp;pressure;altitude;pressure_sealevel;temperature;humidity
76660;BME280;65579;45.534;6.212;2023-07-24T00:00:47;97728.85;;;25.16;35.19
76660;BME280;65579;45.534;6.212;2023-07-24T00:03:12;97724.13;;;24.94;36.17
76660;BME280;65579;45.534;6.212;2023-07-24T00:05:39;97726.20;;;24.98;36.07
76660;BME280;65579;45.534;6.212;2023-07-24T00:08:04;97731.60;;;20.14;44.56
76660;BME280;65579;45.534;6.212;2023-07-24T00:10:29;97725.04;;;20.58;46.20
76660;BME280;65579;45.534;6.212;2023-07-24T00:12:55;97721.99;;;22.93;41.02
76660;BME280;65579;45.534;6.212;2023-07-24T00:15:21;97724.16;;;23.91;38.74
76660;BME280;65579;45.534;6.212;2023-07-24T00:17:46;97726.34;;;21.03;43.34
76660;BME280;65579;45.534;6.212;2023-07-24T00:20:12;97715.55;;;22.87;40.85
76660;BME280;65579;45.534;6.212;2023-07-24T00:22:37;97703.32;;;23.97;38.26
76660;BME280;65579;45.534;6.212;2023-07-24T00:25:03;97693.73;;;22.92;40.75
76660;BME280;65579;45.534;6.212;2023-07-24T00:32:29;97684.60;;;25.04;37.26
76660;BME280;65579;45.534;6.212;2023-07-24T00:34:45;97676.87;;;25.07;36.40
76660;BME280;65579;45.534;6.212;2023-07-24T00:37:11;97673.90;;;25.63;36.57
76660;BME280;65579;45.534;6.212;2023-07-24T00:39:36;97668.38;;;24.72;38.20
76660;BME280;65579;45.534;6.212;2023-07-24T00:42:02;97659.28;;;24.48;38.14
76660;BME280;65579;45.534;6.212;2023-07-24T00:44:27;97656.47;;;24.87;37.09
76660;BME280;65579;45.534;6.212;2023-07-24T00:46:53;97661.51;;;24.65;37.86
76660;BME280;65579;45.534;6.212;2023-07-24T00:49:18;97658.08;;;24.00;38.74
76660;BME280;65579;45.534;6.212;2023-07-24T00:51:43;97649.26;;;24.23;38.61
76660;BME280;65579;45.534;6.212;2023-07-24T00:54:09;97637.18;;;24.31;38.60
76660;BME280;65579;45.534;6.212;2023-07-24T00:56:34;97625.18;;;23.48;39.06
76660;BME280;65579;45.534;6.212;2023-07-24T00:58:59;97622.15;;;23.25;40.46
76660;BME280;65579;45.534;6.212;2023-07-24T01:01:25;97619.69;;;24.34;38.09
76660;BME280;65579;45.534;6.212;2023-07-24T01:03:50;97619.09;;;24.29;38.30
76660;BME280;65579;45.534;6.212;2023-07-24T01:06:16;97613.04;;;21.40;42.56
76660;BME280;65579;45.534;6.212;2023-07-24T01:08:41;97610.24;;;21.04;44.00
76660;BME280;65579;45.534;6.212;2023-07-24T01:11:12;97598.07;;;22.79;40.77
76660;BME280;65579;45.534;6.212;2023-07-24T01:13:37;97592.13;;;23.56;39.61
76660;BME280;65579;45.534;6.212;2023-07-24T01:16:03;97582.85;;;22.40;40.60
76660;BME280;65579;45.534;6.212;2023-07-24T01:18:24;97575.77;;;24.02;37.77
76660;BME280;65579;45.534;6.212;2023-07-24T01:20:52;97575.82;;;24.01;38.01
76660;BME280;65579;45.534;6.212;2023-07-24T01:23:22;97578.60;;;23.04;39.48
76660;BME280;65579;45.534;6.212;2023-07-24T01:25:48;97566.39;;;21.83;42.69
76660;BME280;65579;45.534;6.212;2023-07-24T01:28:07;97556.16;;;20.76;43.99
76660;BME280;65579;45.534;6.212;2023-07-24T01:30:30;97547.28;;;20.50;45.06
76660;BME280;65579;45.534;6.212;2023-07-24T01:32:56;97538.22;;;19.73;47.00
76660;BME280;65579;45.534;6.212;2023-07-24T01:35:21;97523.41;;;21.00;45.03
76660;BME280;65579;45.534;6.212;2023-07-24T01:37:47;97521.55;;;17.98;52.10
76660;BME280;65579;45.534;6.212;2023-07-24T01:40:13;97515.15;;;20.36;47.11
76660;BME280;65579;45.534;6.212;2023-07-24T01:42:36;97502.56;;;20.47;46.10
76660;BME280;65579;45.534;6.212;2023-07-24T01:45:03;97501.35;;;19.61;47.89
76660;BME280;65579;45.534;6.212;2023-07-24T01:47:27;97507.31;;;20.94;44.91
76660;BME280;65579;45.534;6.212;2023-07-24T01:49:53;97518.92;;;22.17;43.21
76660;BME280;65579;45.534;6.212;2023-07-24T01:52:20;97530.09;;;22.62;42.36
76660;BME280;65579;45.534;6.212;2023-07-24T01:54:44;97546.69;;;23.11;41.01
76660;BME280;65579;45.534;6.212;2023-07-24T01:57:09;97541.75;;;21.61;44.12
76660;BME280;65579;45.534;6.212;2023-07-24T01:59:35;97530.45;;;22.07;43.31
76660;BME280;65579;45.534;6.212;2023-07-24T02:02:02;97520.89;;;21.05;44.68
76660;BME280;65579;45.534;6.212;2023-07-24T02:04:26;97515.01;;;21.56;43.16
76660;BME280;65579;45.534;6.212;2023-07-24T02:06:52;97528.19;;;22.97;41.10
76660;BME280;65579;45.534;6.212;2023-07-24T02:09:19;97527.95;;;22.02;42.55
76660;BME280;65579;45.534;6.212;2023-07-24T02:11:44;97547.97;;;23.75;39.88
76660;BME280;65579;45.534;6.212;2023-07-24T02:14:11;97574.07;;;23.86;39.24
76660;BME280;65579;45.534;6.212;2023-07-24T02:16:35;97667.97;;;22.50;42.24
76660;BME280;65579;45.534;6.212;2023-07-24T02:21:36;97921.57;;;16.88;54.69
76660;BME280;65579;45.534;6.212;2023-07-24T02:24:02;97922.29;;;17.52;53.79
76660;BME280;65579;45.534;6.212;2023-07-24T02:28:57;98009.05;;;18.90;53.32
76660;BME280;65579;45.534;6.212;2023-07-24T02:31:22;98037.66;;;19.92;51.97
76660;BME280;65579;45.534;6.212;2023-07-24T02:33:47;98020.16;;;20.37;49.91
76660;BME280;65579;45.534;6.212;2023-07-24T02:36:12;98022.64;;;19.91;55.87
76660;BME280;65579;45.534;6.212;2023-07-24T02:38:38;98045.03;;;18.83;61.30
76660;BME280;65579;45.534;6.212;2023-07-24T02:41:04;97985.75;;;18.91;63.75
76660;BME280;65579;45.534;6.212;2023-07-24T02:43:29;97819.57;;;18.05;67.28
76660;BME280;65579;45.534;6.212;2023-07-24T02:45:55;97787.16;;;16.97;70.24
76660;BME280;65579;45.534;6.212;2023-07-24T02:48:20;97756.73;;;17.54;68.25
76660;BME280;65579;45.534;6.212;2023-07-24T02:50:47;97750.03;;;17.83;67.45
76660;BME280;65579;45.534;6.212;2023-07-24T02:53:11;97743.26;;;18.49;64.31
76660;BME280;65579;45.534;6.212;2023-07-24T02:55:36;97778.32;;;19.24;60.62
76660;BME280;65579;45.534;6.212;2023-07-24T02:58:02;97766.11;;;18.50;63.22
76660;BME280;65579;45.534;6.212;2023-07-24T03:00:27;97763.23;;;19.94;60.60
76660;BME280;65579;45.534;6.212;2023-07-24T03:02:53;97747.22;;;20.39;58.74
76660;BME280;65579;45.534;6.212;2023-07-24T03:05:18;97737.50;;;22.33;53.51
76660;BME280;65579;45.534;6.212;2023-07-24T03:07:43;97738.39;;;22.84;52.02
76660;BME280;65579;45.534;6.212;2023-07-24T03:10:10;97745.69;;;19.61;60.10
76660;BME280;65579;45.534;6.212;2023-07-24T03:12:35;97739.42;;;19.65;60.40
76660;BME280;65579;45.534;6.212;2023-07-24T03:15:01;97730.92;;;19.90;58.47
76660;BME280;65579;45.534;6.212;2023-07-24T03:17:26;97716.42;;;20.68;55.89
76660;BME280;65579;45.534;6.212;2023-07-24T03:19:54;97719.40;;;19.76;58.32
76660;BME280;65579;45.534;6.212;2023-07-24T03:22:18;97717.55;;;18.50;60.68
76660;BME280;65579;45.534;6.212;2023-07-24T03:24:44;97715.75;;;18.99;61.28
76660;BME280;65579;45.534;6.212;2023-07-24T03:27:10;97715.36;;;19.87;58.26
76660;BME280;65579;45.534;6.212;2023-07-24T03:29:36;97716.20;;;19.47;59.19
76660;BME280;65579;45.534;6.212;2023-07-24T03:32:01;97701.67;;;19.39;58.91
76660;BME280;65579;45.534;6.212;2023-07-24T03:34:27;97684.81;;;21.54;53.67
76660;BME280;65579;45.534;6.212;2023-07-24T03:36:53;97674.69;;;22.24;51.47
76660;BME280;65579;45.534;6.212;2023-07-24T03:39:18;97656.66;;;22.76;49.62
76660;BME280;65579;45.534;6.212;2023-07-24T03:41:44;97651.45;;;21.92;51.09
76660;BME280;65579;45.534;6.212;2023-07-24T03:44:10;97657.14;;;21.96;50.54
76660;BME280;65579;45.534;6.212;2023-07-24T03:46:36;97677.82;;;21.60;50.56
76660;BME280;65579;45.534;6.212;2023-07-24T03:49:01;97679.80;;;19.08;56.66
76660;BME280;65579;45.534;6.212;2023-07-24T03:51:27;97673.61;;;18.63;57.77
76660;BME280;65579;45.534;6.212;2023-07-24T03:56:15;97687.43;;;17.68;60.13
76660;BME280;65579;45.534;6.212;2023-07-24T03:58:40;97686.14;;;19.08;57.96
76660;BME280;65579;45.534;6.212;2023-07-24T04:01:06;97690.92;;;19.64;55.22
76660;BME280;65579;45.534;6.212;2023-07-24T04:03:31;97711.72;;;19.39;59.52
76660;BME280;65579;45.534;6.212;2023-07-24T04:05:56;97712.14;;;18.36;62.55
76660;BME280;65579;45.534;6.212;2023-07-24T04:08:22;97717.14;;;18.46;62.29
76660;BME280;65579;45.534;6.212;2023-07-24T04:10:47;97729.21;;;19.17;59.67
76660;BME280;65579;45.534;6.212;2023-07-24T04:13:12;97713.39;;;21.32;54.25
76660;BME280;65579;45.534;6.212;2023-07-24T04:15:38;97700.77;;;22.65;51.57
76660;BME280;65579;45.534;6.212;2023-07-24T04:18:03;97690.83;;;20.96;54.38
76660;BME280;65579;45.534;6.212;2023-07-24T04:20:29;97692.25;;;21.17;54.43
76660;BME280;65579;45.534;6.212;2023-07-24T04:22:55;97705.85;;;20.99;54.29
76660;BME280;65579;45.534;6.212;2023-07-24T04:25:21;97715.37;;;21.37;54.23
76660;BME280;65579;45.534;6.212;2023-07-24T04:27:46;97711.33;;;19.90;57.54
76660;BME280;65579;45.534;6.212;2023-07-24T04:30:12;97691.06;;;21.65;54.61
76660;BME280;65579;45.534;6.212;2023-07-24T04:32:37;97661.10;;;22.00;52.80
76660;BME280;65579;45.534;6.212;2023-07-24T04:35:04;97651.60;;;20.11;57.15
76660;BME280;65579;45.534;6.212;2023-07-24T04:37:29;97660.20;;;18.01;64.88
76660;BME280;65579;45.534;6.212;2023-07-24T04:39:54;97648.30;;;17.09;69.13
76660;BME280;65579;45.534;6.212;2023-07-24T04:42:19;97649.49;;;16.83;70.97
76660;BME280;65579;45.534;6.212;2023-07-24T04:44:44;97632.80;;;16.22;73.49
76660;BME280;65579;45.534;6.212;2023-07-24T04:47:09;97616.46;;;16.73;72.03
76660;BME280;65579;45.534;6.212;2023-07-24T04:49:34;97611.89;;;18.56;64.90
76660;BME280;65579;45.534;6.212;2023-07-24T04:52:00;97621.11;;;18.78;60.92
76660;BME280;65579;45.534;6.212;2023-07-24T04:54:25;97653.55;;;20.74;55.82
76660;BME280;65579;45.534;6.212;2023-07-24T04:56:50;97708.11;;;19.60;58.97
76660;BME280;65579;45.534;6.212;2023-07-24T04:59:15;97770.98;;;17.19;67.47
76660;BME280;65579;45.534;6.212;2023-07-24T05:01:40;97828.50;;;16.36;70.73
76660;BME280;65579;45.534;6.212;2023-07-24T05:04:06;97868.57;;;17.45;67.90
76660;BME280;65579;45.534;6.212;2023-07-24T05:06:32;97896.85;;;16.78;69.73
76660;BME280;65579;45.534;6.212;2023-07-24T05:08:56;97858.30;;;17.51;67.96
76660;BME280;65579;45.534;6.212;2023-07-24T05:11:22;97836.29;;;18.34;65.58
76660;BME280;65579;45.534;6.212;2023-07-24T05:13:47;97879.21;;;17.31;67.11
76660;BME280;65579;45.534;6.212;2023-07-24T05:16:13;97880.15;;;18.07;64.91
76660;BME280;65579;45.534;6.212;2023-07-24T05:18:38;97857.83;;;18.48;64.86
76660;BME280;65579;45.534;6.212;2023-07-24T05:21:03;97877.30;;;18.20;65.31
76660;BME280;65579;45.534;6.212;2023-07-24T05:23:28;97883.94;;;16.14;70.09
76660;BME280;65579;45.534;6.212;2023-07-24T05:25:57;97894.79;;;20.44;59.75
76660;BME280;65579;45.534;6.212;2023-07-24T05:28:18;97964.45;;;20.93;57.56
76660;BME280;65579;45.534;6.212;2023-07-24T05:30:44;98011.57;;;21.40;55.16
76660;BME280;65579;45.534;6.212;2023-07-24T05:33:09;98034.36;;;22.00;52.87
76660;BME280;65579;45.534;6.212;2023-07-24T05:35:34;98029.73;;;22.25;52.27
76660;BME280;65579;45.534;6.212;2023-07-24T05:37:59;98032.00;;;22.48;50.84
76660;BME280;65579;45.534;6.212;2023-07-24T05:40:25;98056.26;;;21.93;53.25
76660;BME280;65579;45.534;6.212;2023-07-24T05:42:51;98021.29;;;20.03;58.56
76660;BME280;65579;45.534;6.212;2023-07-24T05:45:17;97985.76;;;18.76;63.84
76660;BME280;65579;45.534;6.212;2023-07-24T05:47:42;97996.32;;;21.19;56.68
76660;BME280;65579;45.534;6.212;2023-07-24T05:50:08;97962.92;;;19.63;60.87
76660;BME280;65579;45.534;6.212;2023-07-24T05:52:33;97900.21;;;18.41;65.88
76660;BME280;65579;45.534;6.212;2023-07-24T05:54:59;97990.00;;;18.68;63.27
76660;BME280;65579;45.534;6.212;2023-07-24T05:57:25;97955.50;;;16.58;68.37
76660;BME280;65579;45.534;6.212;2023-07-24T05:59:50;97895.89;;;14.95;78.50
76660;BME280;65579;45.534;6.212;2023-07-24T06:02:15;97952.44;;;18.03;68.65
76660;BME280;65579;45.534;6.212;2023-07-24T06:04:40;97879.89;;;16.71;72.26
76660;BME280;65579;45.534;6.212;2023-07-24T06:07:06;97761.96;;;16.08;75.43
76660;BME280;65579;45.534;6.212;2023-07-24T06:09:30;97829.04;;;16.00;75.31
76660;BME280;65579;45.534;6.212;2023-07-24T06:11:56;97882.61;;;16.37;73.51
76660;BME280;65579;45.534;6.212;2023-07-24T06:14:21;97888.97;;;19.32;63.04
76660;BME280;65579;45.534;6.212;2023-07-24T06:16:46;97899.17;;;17.92;68.15
76660;BME280;65579;45.534;6.212;2023-07-24T06:19:11;97866.72;;;17.60;67.97
76660;BME280;65579;45.534;6.212;2023-07-24T06:21:36;97818.20;;;16.82;70.91
76660;BME280;65579;45.534;6.212;2023-07-24T06:24:02;97786.86;;;16.60;70.44
76660;BME280;65579;45.534;6.212;2023-07-24T06:26:27;97796.05;;;16.77;71.84
76660;BME280;65579;45.534;6.212;2023-07-24T06:28:52;97773.06;;;16.92;71.98
76660;BME280;65579;45.534;6.212;2023-07-24T06:31:18;97752.71;;;16.46;71.12
76660;BME280;65579;45.534;6.212;2023-07-24T06:33:43;97754.36;;;17.28;70.17
76660;BME280;65579;45.534;6.212;2023-07-24T06:36:09;97752.91;;;16.98;70.03
76660;BME280;65579;45.534;6.212;2023-07-24T06:38:34;97751.22;;;15.67;74.29
76660;BME280;65579;45.534;6.212;2023-07-24T06:40:59;97746.45;;;17.22;69.27
76660;BME280;65579;45.534;6.212;2023-07-24T06:43:25;97742.88;;;19.18;64.04
76660;BME280;65579;45.534;6.212;2023-07-24T06:45:50;97748.07;;;19.38;62.97
76660;BME280;65579;45.534;6.212;2023-07-24T06:48:16;97741.03;;;19.30;63.20
76660;BME280;65579;45.534;6.212;2023-07-24T06:50:41;97726.00;;;17.18;67.47
76660;BME280;65579;45.534;6.212;2023-07-24T06:53:07;97703.21;;;17.30;69.94
76660;BME280;65579;45.534;6.212;2023-07-24T06:55:33;97708.32;;;15.88;73.20
76660;BME280;65579;45.534;6.212;2023-07-24T06:57:58;97705.67;;;16.70;72.73
76660;BME280;65579;45.534;6.212;2023-07-24T07:00:23;97742.90;;;16.07;76.62
76660;BME280;65579;45.534;6.212;2023-07-24T07:02:48;97722.83;;;16.39;76.69
76660;BME280;65579;45.534;6.212;2023-07-24T07:05:14;97714.04;;;16.59;75.91
76660;BME280;65579;45.534;6.212;2023-07-24T07:07:39;97708.60;;;16.97;75.93
76660;BME280;65579;45.534;6.212;2023-07-24T07:10:05;97688.08;;;16.77;74.91
76660;BME280;65579;45.534;6.212;2023-07-24T07:12:30;97677.86;;;16.42;74.98
76660;BME280;65579;45.534;6.212;2023-07-24T07:14:55;97696.20;;;16.45;75.18
76660;BME280;65579;45.534;6.212;2023-07-24T07:17:21;97704.47;;;16.60;73.79
76660;BME280;65579;45.534;6.212;2023-07-24T07:19:46;97748.37;;;17.15;72.14
76660;BME280;65579;45.534;6.212;2023-07-24T07:22:12;97763.82;;;18.93;65.63
76660;BME280;65579;45.534;6.212;2023-07-24T07:24:37;97787.66;;;20.86;60.13
76660;BME280;65579;45.534;6.212;2023-07-24T07:27:04;97780.72;;;20.94;59.26
76660;BME280;65579;45.534;6.212;2023-07-24T07:29:29;97735.23;;;19.26;64.17
76660;BME280;65579;45.534;6.212;2023-07-24T07:31:55;97753.64;;;20.71;60.51
76660;BME280;65579;45.534;6.212;2023-07-24T07:34:20;97736.62;;;18.81;65.65
76660;BME280;65579;45.534;6.212;2023-07-24T07:36:46;97735.78;;;21.02;59.36
76660;BME280;65579;45.534;6.212;2023-07-24T07:39:12;97797.07;;;19.90;60.39
76660;BME280;65579;45.534;6.212;2023-07-24T07:41:38;97759.39;;;19.53;62.67
76660;BME280;65579;45.534;6.212;2023-07-24T07:44:04;97760.52;;;21.84;57.28
76660;BME280;65579;45.534;6.212;2023-07-24T07:46:30;97746.21;;;22.42;54.77
76660;BME280;65579;45.534;6.212;2023-07-24T07:48:56;97755.51;;;23.39;52.35
76660;BME280;65579;45.534;6.212;2023-07-24T07:51:21;97785.80;;;23.63;51.63
76660;BME280;65579;45.534;6.212;2023-07-24T07:53:47;97740.88;;;22.55;54.26
76660;BME280;65579;45.534;6.212;2023-07-24T07:56:12;97771.98;;;23.14;52.95
76660;BME280;65579;45.534;6.212;2023-07-24T07:58:38;97772.33;;;22.28;53.23
76660;BME280;65579;45.534;6.212;2023-07-24T08:01:04;97740.48;;;22.37;51.79
76660;BME280;65579;45.534;6.212;2023-07-24T08:03:29;97732.21;;;22.31;52.97
76660;BME280;65579;45.534;6.212;2023-07-24T08:05:57;97725.62;;;22.34;55.27
76660;BME280;65579;45.534;6.212;2023-07-24T08:08:21;97720.85;;;21.84;56.70
76660;BME280;65579;45.534;6.212;2023-07-24T08:10:47;97706.74;;;22.34;56.73
76660;BME280;65579;45.534;6.212;2023-07-24T08:13:12;97693.99;;;22.86;55.86
76660;BME280;65579;45.534;6.212;2023-07-24T08:15:38;97694.02;;;23.89;51.69
76660;BME280;65579;45.534;6.212;2023-07-24T08:18:04;97693.00;;;24.75;48.56
76660;BME280;65579;45.534;6.212;2023-07-24T08:20:29;97693.48;;;25.41;48.27
76660;BME280;65579;45.534;6.212;2023-07-24T08:22:54;97712.93;;;24.24;49.14
76660;BME280;65579;45.534;6.212;2023-07-24T08:25:20;97707.52;;;22.42;54.02
76660;BME280;65579;45.534;6.212;2023-07-24T08:27:45;97700.66;;;22.21;56.04
76660;BME280;65579;45.534;6.212;2023-07-24T08:30:12;97693.87;;;21.99;57.06
76660;BME280;65579;45.534;6.212;2023-07-24T08:32:36;97678.25;;;23.62;50.72
76660;BME280;65579;45.534;6.212;2023-07-24T08:35:02;97662.91;;;23.13;51.91
76660;BME280;65579;45.534;6.212;2023-07-24T08:37:28;97674.80;;;24.02;50.99
76660;BME280;65579;45.534;6.212;2023-07-24T08:39:53;97676.95;;;24.20;50.69
76660;BME280;65579;45.534;6.212;2023-07-24T08:42:18;97675.84;;;22.63;51.50
76660;BME280;65579;45.534;6.212;2023-07-24T08:44:44;97676.21;;;24.03;50.25
76660;BME280;65579;45.534;6.212;2023-07-24T08:47:10;97667.98;;;24.73;48.81
76660;BME280;65579;45.534;6.212;2023-07-24T08:49:36;97660.36;;;21.04;55.08
76660;BME280;65579;45.534;6.212;2023-07-24T08:52:01;97642.17;;;22.31;53.03
76660;BME280;65579;45.534;6.212;2023-07-24T08:54:27;97644.57;;;20.60;54.50
76660;BME280;65579;45.534;6.212;2023-07-24T08:56:53;97634.87;;;23.14;50.44
76660;BME280;65579;45.534;6.212;2023-07-24T08:59:18;97621.39;;;24.44;48.09
76660;BME280;65579;45.534;6.212;2023-07-24T09:04:10;97621.27;;;21.91;54.00
76660;BME280;65579;45.534;6.212;2023-07-24T09:06:36;97563.15;;;24.25;50.10
76660;BME280;65579;45.534;6.212;2023-07-24T09:09:02;97551.60;;;24.37;49.79
76660;BME280;65579;45.534;6.212;2023-07-24T09:11:27;97584.36;;;22.13;55.94
76660;BME280;65579;45.534;6.212;2023-07-24T09:13:53;97603.09;;;23.70;51.31
76660;BME280;65579;45.534;6.212;2023-07-24T09:16:23;97644.71;;;21.34;55.44
76660;BME280;65579;45.534;6.212;2023-07-24T09:18:44;97650.50;;;20.43;58.62
76660;BME280;65579;45.534;6.212;2023-07-24T09:21:10;97626.32;;;19.90;60.23
76660;BME280;65579;45.534;6.212;2023-07-24T09:23:35;97611.14;;;22.75;53.27
76660;BME280;65579;45.534;6.212;2023-07-24T09:26:06;97597.56;;;21.85;55.21
76660;BME280;65579;45.534;6.212;2023-07-24T09:28:26;97605.98;;;23.49;51.16
76660;BME280;65579;45.534;6.212;2023-07-24T09:30:53;97615.24;;;18.62;64.69
76660;BME280;65579;45.534;6.212;2023-07-24T09:33:17;97611.27;;;19.82;61.08
76660;BME280;65579;45.534;6.212;2023-07-24T09:35:43;97606.23;;;21.62;57.21
76660;BME280;65579;45.534;6.212;2023-07-24T09:38:09;97568.26;;;21.58;56.39
76660;BME280;65579;45.534;6.212;2023-07-24T09:40:40;97548.92;;;22.92;52.26
76660;BME280;65579;45.534;6.212;2023-07-24T09:42:59;97585.55;;;19.77;59.41
76660;BME280;65579;45.534;6.212;2023-07-24T09:45:26;97729.85;;;19.86;60.01
76660;BME280;65579;45.534;6.212;2023-07-24T09:47:51;97857.13;;;18.86;64.63
76660;BME280;65579;45.534;6.212;2023-07-24T09:50:16;97852.00;;;18.19;68.36
76660;BME280;65579;45.534;6.212;2023-07-24T09:52:42;97770.93;;;18.41;66.72
76660;BME280;65579;45.534;6.212;2023-07-24T09:55:11;97758.92;;;17.89;68.82
76660;BME280;65579;45.534;6.212;2023-07-24T09:57:33;97779.23;;;19.59;62.31
76660;BME280;65579;45.534;6.212;2023-07-24T10:00:00;97772.83;;;22.17;56.61
76660;BME280;65579;45.534;6.212;2023-07-24T10:02:25;97767.33;;;21.62;57.82
76660;BME280;65579;45.534;6.212;2023-07-24T10:04:50;97752.75;;;21.10;56.32
76660;BME280;65579;45.534;6.212;2023-07-24T10:07:15;97737.50;;;22.25;56.93
76660;BME280;65579;45.534;6.212;2023-07-24T10:09:42;97724.46;;;23.29;51.72
76660;BME280;65579;45.534;6.212;2023-07-24T10:12:08;97726.40;;;24.00;49.43
76660;BME280;65579;45.534;6.212;2023-07-24T10:14:33;97744.77;;;19.63;56.82
76660;BME280;65579;45.534;6.212;2023-07-24T10:16:58;97748.53;;;19.66;59.40
76660;BME280;65579;45.534;6.212;2023-07-24T10:19:23;97748.52;;;19.82;61.20
76660;BME280;65579;45.534;6.212;2023-07-24T10:21:51;97748.51;;;19.57;61.77
76660;BME280;65579;45.534;6.212;2023-07-24T10:24:15;97746.85;;;20.20;54.96
76660;BME280;65579;45.534;6.212;2023-07-24T10:26:40;97739.87;;;19.18;56.33
76660;BME280;65579;45.534;6.212;2023-07-24T10:29:06;97729.91;;;19.15;58.74
76660;BME280;65579;45.534;6.212;2023-07-24T10:31:32;97725.44;;;18.30;62.88
76660;BME280;65579;45.534;6.212;2023-07-24T10:34:03;97720.52;;;18.76;60.93
76660;BME280;65579;45.534;6.212;2023-07-24T10:36:23;97716.65;;;18.89;59.52
76660;BME280;65579;45.534;6.212;2023-07-24T10:38:53;97717.04;;;19.05;60.26
76660;BME280;65579;45.534;6.212;2023-07-24T10:41:15;97717.48;;;18.86;58.49
76660;BME280;65579;45.534;6.212;2023-07-24T10:43:41;97714.70;;;18.80;63.10
76660;BME280;65579;45.534;6.212;2023-07-24T10:46:06;97718.41;;;19.07;60.71
76660;BME280;65579;45.534;6.212;2023-07-24T10:48:32;97717.55;;;19.04;58.08
76660;BME280;65579;45.534;6.212;2023-07-24T10:50:58;97712.16;;;19.43;57.80
76660;BME280;65579;45.534;6.212;2023-07-24T10:53:23;97708.20;;;19.39;58.58
76660;BME280;65579;45.534;6.212;2023-07-24T10:55:50;97692.24;;;19.53;57.71
76660;BME280;65579;45.534;6.212;2023-07-24T10:58:15;97682.40;;;20.27;55.44
76660;BME280;65579;45.534;6.212;2023-07-24T11:00:41;97678.82;;;19.80;55.76
76660;BME280;65579;45.534;6.212;2023-07-24T11:03:09;97673.72;;;20.97;51.90
76660;BME280;65579;45.534;6.212;2023-07-24T11:05:32;97677.00;;;19.97;54.19
76660;BME280;65579;45.534;6.212;2023-07-24T11:07:57;97660.81;;;21.02;52.42
76660;BME280;65579;45.534;6.212;2023-07-24T11:10:23;97656.01;;;20.33;53.86
76660;BME280;65579;45.534;6.212;2023-07-24T11:12:49;97650.52;;;20.16;57.32
76660;BME280;65579;45.534;6.212;2023-07-24T11:15:15;97638.03;;;20.72;53.47
76660;BME280;65579;45.534;6.212;2023-07-24T11:17:41;97632.15;;;20.29;53.99
76660;BME280;65579;45.534;6.212;2023-07-24T11:20:08;97630.68;;;19.75;55.17
76660;BME280;65579;45.534;6.212;2023-07-24T11:22:33;97619.44;;;21.02;54.54
76660;BME280;65579;45.534;6.212;2023-07-24T11:24:57;97621.71;;;21.50;53.70
76660;BME280;65579;45.534;6.212;2023-07-24T11:27:25;97619.49;;;19.76;55.99
76660;BME280;65579;45.534;6.212;2023-07-24T11:29:49;97609.80;;;21.05;53.97
76660;BME280;65579;45.534;6.212;2023-07-24T11:32:18;97601.20;;;20.20;54.70
76660;BME280;65579;45.534;6.212;2023-07-24T11:34:39;97594.62;;;19.96;55.51
76660;BME280;65579;45.534;6.212;2023-07-24T11:37:06;97580.01;;;20.59;54.22
76660;BME280;65579;45.534;6.212;2023-07-24T11:39:31;97575.39;;;20.82;52.58
76660;BME280;65579;45.534;6.212;2023-07-24T11:41:59;97572.48;;;21.23;52.46
76660;BME280;65579;45.534;6.212;2023-07-24T11:44:27;97564.95;;;21.86;51.31
76660;BME280;65579;45.534;6.212;2023-07-24T11:46:48;97568.99;;;20.88;51.54
76660;BME280;65579;45.534;6.212;2023-07-24T11:49:17;97564.48;;;20.03;55.42
76660;BME280;65579;45.534;6.212;2023-07-24T11:51:39;97556.25;;;20.32;57.51
76660;BME280;65579;45.534;6.212;2023-07-24T11:54:06;97549.09;;;21.12;53.25
76660;BME280;65579;45.534;6.212;2023-07-24T11:56:30;97547.98;;;20.97;54.22
76660;BME280;65579;45.534;6.212;2023-07-24T11:58:56;97539.33;;;21.02;52.31
76660;BME280;65579;45.534;6.212;2023-07-24T12:01:21;97541.97;;;20.80;52.36
76660;BME280;65579;45.534;6.212;2023-07-24T12:03:47;97533.75;;;21.62;50.21
76660;BME280;65579;45.534;6.212;2023-07-24T12:06:14;97529.08;;;22.75;47.64
76660;BME280;65579;45.534;6.212;2023-07-24T12:08:39;97514.89;;;23.62;45.19
76660;BME280;65579;45.534;6.212;2023-07-24T12:11:04;97512.51;;;22.42;47.01
76660;BME280;65579;45.534;6.212;2023-07-24T12:13:30;97505.29;;;23.32;46.09
76660;BME280;65579;45.534;6.212;2023-07-24T12:15:56;97494.01;;;23.92;43.77
76660;BME280;65579;45.534;6.212;2023-07-24T12:18:21;97493.61;;;22.23;44.64
76660;BME280;65579;45.534;6.212;2023-07-24T12:20:47;97486.28;;;22.35;46.24
76660;BME280;65579;45.534;6.212;2023-07-24T12:23:12;97473.06;;;21.43;47.96
76660;BME280;65579;45.534;6.212;2023-07-24T12:25:38;97471.12;;;21.79;46.80
76660;BME280;65579;45.534;6.212;2023-07-24T12:28:04;97463.26;;;23.32;47.32
76660;BME280;65579;45.534;6.212;2023-07-24T12:30:29;97456.43;;;24.97;42.84
76660;BME280;65579;45.534;6.212;2023-07-24T12:32:54;97452.62;;;24.38;41.35
76660;BME280;65579;45.534;6.212;2023-07-24T12:35:21;97441.62;;;24.74;41.56
76660;BME280;65579;45.534;6.212;2023-07-24T12:37:46;97449.18;;;23.54;42.56
76660;BME280;65579;45.534;6.212;2023-07-24T12:40:12;97450.68;;;21.70;45.38
76660;BME280;65579;45.534;6.212;2023-07-24T12:42:37;97445.07;;;22.86;46.05
76660;BME280;65579;45.534;6.212;2023-07-24T12:45:04;97441.71;;;23.92;43.67
76660;BME280;65579;45.534;6.212;2023-07-24T12:47:29;97449.96;;;22.60;45.04
76660;BME280;65579;45.534;6.212;2023-07-24T12:49:54;97448.37;;;22.46;46.22
76660;BME280;65579;45.534;6.212;2023-07-24T12:52:20;97440.06;;;23.44;45.53
76660;BME280;65579;45.534;6.212;2023-07-24T12:54:45;97448.90;;;23.04;45.42
76660;BME280;65579;45.534;6.212;2023-07-24T12:57:11;97437.12;;;24.03;44.22
76660;BME280;65579;45.534;6.212;2023-07-24T12:59:36;97425.76;;;23.23;44.21
76660;BME280;65579;45.534;6.212;2023-07-24T13:02:02;97428.45;;;23.21;45.60
76660;BME280;65579;45.534;6.212;2023-07-24T13:04:27;97415.88;;;22.98;46.10